Time;durP1;ratioP1;P1;durP2;ratioP2;P2;SDS_P1;SDS_P2;PMS_P1;PMS_P2;Temp;Humidity;BMP_temperature;BMP_pressure;BME280_temperature;BME280_humidity;BME280_pressure;Samples;Min_cycle;Max_cycle;Signal;HPM_P1;HPM_P2
2023/05/24 00:02:28;;;;;;;5.78;4.55;;;;;;;;;;10101101;28;20484;-68
2023/05/24 00:07:27;;;;;;;7.45;4.80;;;;;;;;;;10101093;28;20074;-68
2023/05/24 00:12:25;;;;;;;5.53;4.95;;;;;;;;;;10100562;28;20078;-68
2023/05/24 00:17:23;;;;;;;5.93;5.05;;;;;;;;;;10101693;28;20074;-68
2023/05/24 00:22:23;;;;;;;7.05;4.25;;;;;;;;;;10098989;28;20090;-68
2023/05/24 00:27:22;;;;;;;4.47;3.78;;;;;;;;;;10100269;28;20493;-69
2023/05/24 00:32:20;;;;;;;4.40;3.90;;;;;;;;;;10094525;28;20070;-69
2023/05/24 00:37:18;;;;;;;4.20;3.90;;;;;;;;;;10114878;28;20086;-69
2023/05/24 00:42:18;;;;;;;5.07;3.53;;;;;;;;;;10098918;28;20403;-69
2023/05/24 00:47:16;;;;;;;4.75;3.97;;;;;;;;;;10099782;28;20073;-69
2023/05/24 00:52:16;;;;;;;4.55;4.15;;;;;;;;;;10099848;28;20078;-69
2023/05/24 00:57:14;;;;;;;7.28;4.00;;;;;;;;;;10097002;28;20527;-69
2023/05/24 01:02:15;;;;;;;5.22;4.28;;;;;;;;;;10097355;28;20081;-67
2023/05/24 01:07:18;;;;;;;6.82;4.90;;;;;;;;;;10093777;28;20071;-69
2023/05/24 01:12:21;;;;;;;8.93;5.45;;;;;;;;;;10096413;28;20094;-68
2023/05/24 01:17:25;;;;;;;5.07;4.60;;;;;;;;;;10097918;28;20075;-69
2023/05/24 01:22:28;;;;;;;6.53;4.50;;;;;;;;;;10097119;28;20527;-67
2023/05/24 01:27:29;;;;;;;8.20;5.15;;;;;;;;;;10099070;28;20082;-68
2023/05/24 01:32:28;;;;;;;7.70;5.13;;;;;;;;;;10099866;28;20123;-67
2023/05/24 01:37:26;;;;;;;6.32;4.90;;;;;;;;;;10097928;28;20501;-67
2023/05/24 01:42:27;;;;;;;8.95;6.88;;;;;;;;;;10098358;28;20094;-68
2023/05/24 01:47:34;;;;;;;6.38;5.82;;;;;;;;;;10096691;28;20415;-68
2023/05/24 01:52:34;;;;;;;8.02;5.97;;;;;;;;;;10101970;28;20081;-68
2023/05/24 01:57:34;;;;;;;9.32;6.18;;;;;;;;;;10102045;28;20083;-68
2023/05/24 02:02:34;;;;;;;8.02;7.22;;;;;;;;;;10115100;28;20090;-68
2023/05/24 02:07:32;;;;;;;9.82;6.60;;;;;;;;;;10104725;28;20105;-68
2023/05/24 02:12:31;;;;;;;7.40;6.28;;;;;;;;;;10105696;28;20073;-68
2023/05/24 02:17:31;;;;;;;7.20;6.35;;;;;;;;;;10104866;28;20085;-68
2023/05/24 02:22:31;;;;;;;8.00;5.85;;;;;;;;;;10100525;28;20051;-68
2023/05/24 02:27:29;;;;;;;7.32;5.15;;;;;;;;;;10101569;28;20531;-68
2023/05/24 02:32:28;;;;;;;6.63;4.95;;;;;;;;;;10100660;28;20089;-69
2023/05/24 02:37:26;;;;;;;6.20;5.10;;;;;;;;;;10101802;28;20469;-68
2023/05/24 02:42:25;;;;;;;9.55;4.70;;;;;;;;;;10102181;28;20492;-68
2023/05/24 02:47:25;;;;;;;6.70;4.82;;;;;;;;;;10104394;28;20101;-68
2023/05/24 02:52:24;;;;;;;8.05;4.57;;;;;;;;;;10104407;28;20075;-68
2023/05/24 02:57:22;;;;;;;5.18;4.53;;;;;;;;;;10116964;28;20546;-68
2023/05/24 03:02:22;;;;;;;7.60;4.75;;;;;;;;;;10103678;28;20067;-68
2023/05/24 03:07:20;;;;;;;5.95;5.28;;;;;;;;;;10099954;28;20162;-68
2023/05/24 03:12:19;;;;;;;5.25;4.50;;;;;;;;;;10102405;28;20063;-68
2023/05/24 03:17:17;;;;;;;11.00;5.15;;;;;;;;;;10104212;28;20113;-68
2023/05/24 03:22:16;;;;;;;5.85;4.70;;;;;;;;;;10104771;28;20066;-68
2023/05/24 03:27:15;;;;;;;7.63;4.93;;;;;;;;;;10099744;28;20398;-68
2023/05/24 03:32:13;;;;;;;6.97;4.82;;;;;;;;;;10099512;28;20081;-68
2023/05/24 03:37:11;;;;;;;5.80;4.45;;;;;;;;;;10107864;28;20078;-67
2023/05/24 03:42:13;;;;;;;7.13;4.90;;;;;;;;;;10113757;28;20074;-68
2023/05/24 03:47:11;;;;;;;5.85;4.82;;;;;;;;;;10100480;28;20066;-68
2023/05/24 03:52:10;;;;;;;6.40;4.97;;;;;;;;;;10102783;28;20066;-69
2023/05/24 03:57:08;;;;;;;6.72;4.93;;;;;;;;;;10099732;28;20078;-68
2023/05/24 04:02:08;;;;;;;5.03;4.47;;;;;;;;;;10098915;28;20127;-68
2023/05/24 04:07:10;;;;;;;6.47;5.00;;;;;;;;;;10102150;28;20066;-68
2023/05/24 04:12:10;;;;;;;8.13;6.60;;;;;;;;;;10095341;28;20086;-67
2023/05/24 04:17:13;;;;;;;9.32;4.88;;;;;;;;;;10094199;28;20086;-68
2023/05/24 04:22:13;;;;;;;7.15;5.90;;;;;;;;;;10096402;28;20071;-67
2023/05/24 04:27:11;;;;;;;7.43;4.80;;;;;;;;;;10097359;28;20094;-66
2023/05/24 04:32:13;;;;;;;10.98;4.68;;;;;;;;;;10102696;28;20516;-67
2023/05/24 04:37:16;;;;;;;8.52;4.85;;;;;;;;;;10095302;28;20087;-67
2023/05/24 04:42:16;;;;;;;9.85;6.03;;;;;;;;;;10096863;28;20057;-67
2023/05/24 04:47:15;;;;;;;10.05;5.03;;;;;;;;;;10100819;28;20071;-67
2023/05/24 04:52:15;;;;;;;5.13;4.72;;;;;;;;;;10100049;28;20067;-67
2023/05/24 04:57:13;;;;;;;7.30;6.15;;;;;;;;;;10098757;28;20078;-67
2023/05/24 05:02:11;;;;;;;8.30;6.53;;;;;;;;;;10096500;28;20074;-68
2023/05/24 05:07:09;;;;;;;9.02;6.55;;;;;;;;;;10096292;28;20076;-67
2023/05/24 05:12:09;;;;;;;17.38;6.45;;;;;;;;;;10089551;28;20073;-68
2023/05/24 05:17:07;;;;;;;17.27;6.95;;;;;;;;;;10096242;28;20097;-68
2023/05/24 05:22:06;;;;;;;10.88;6.80;;;;;;;;;;10096196;28;20086;-67
2023/05/24 05:27:05;;;;;;;12.55;6.85;;;;;;;;;;10098116;28;20070;-67
2023/05/24 05:32:08;;;;;;;18.77;6.45;;;;;;;;;;10093829;28;20540;-68
2023/05/24 05:37:07;;;;;;;6.88;6.07;;;;;;;;;;10098341;28;20075;-68
2023/05/24 05:42:05;;;;;;;9.40;6.93;;;;;;;;;;10099262;28;20078;-68
2023/05/24 05:47:06;;;;;;;11.32;7.03;;;;;;;;;;10096797;28;20089;-68
2023/05/24 05:52:06;;;;;;;10.13;6.20;;;;;;;;;;10095439;28;20075;-68
2023/05/24 05:57:06;;;;;;;14.40;7.57;;;;;;;;;;10093946;28;20501;-69
2023/05/24 06:02:06;;;;;;;16.63;6.25;;;;;;;;;;10090527;28;20101;-69
2023/05/24 06:07:05;;;;;;;9.00;6.78;;;;;;;;;;10096033;28;20085;-67
2023/05/24 06:12:04;;;;;;;13.88;7.57;;;;;;;;;;10095207;28;20086;-68
2023/05/24 06:17:02;;;;;;;13.65;6.38;;;;;;;;;;10094326;28;20521;-68
2023/05/24 06:22:02;;;;;;;8.55;7.10;;;;;;;;;;10095014;28;20473;-65
2023/05/24 06:27:00;;;;;;;9.05;6.10;;;;;;;;;;10095696;28;20125;-64
2023/05/24 06:32:02;;;;;;;6.75;6.13;;;;;;;;;;10094742;28;21059;-63
2023/05/24 06:37:01;;;;;;;8.65;5.65;;;;;;;;;;10098569;28;20111;-65
2023/05/24 06:42:00;;;;;;;6.78;6.10;;;;;;;;;;10109173;28;20086;-65
2023/05/24 06:47:08;;;;;;;6.68;5.70;;;;;;;;;;10094590;28;20082;-64
2023/05/24 06:52:08;;;;;;;7.75;5.35;;;;;;;;;;10105143;28;20101;-65
2023/05/24 06:57:06;;;;;;;8.02;5.53;;;;;;;;;;10099112;28;20093;-67
2023/05/24 07:02:04;;;;;;;6.20;5.38;;;;;;;;;;10102976;28;20082;-67
2023/05/24 07:07:03;;;;;;;8.80;5.55;;;;;;;;;;10103348;28;20067;-67
2023/05/24 07:12:02;;;;;;;7.03;6.00;;;;;;;;;;10102442;28;20075;-67
2023/05/24 07:17:02;;;;;;;10.85;6.07;;;;;;;;;;10099754;28;20078;-66
2023/05/24 07:22:00;;;;;;;7.45;4.43;;;;;;;;;;10099772;28;20071;-67
2023/05/24 07:26:58;;;;;;;7.88;5.10;;;;;;;;;;10102451;28;20091;-66
2023/05/24 07:31:59;;;;;;;4.50;4.10;;;;;;;;;;10102187;28;20073;-67
2023/05/24 07:36:59;;;;;;;4.25;3.47;;;;;;;;;;10101962;28;20512;-66
2023/05/24 07:41:57;;;;;;;5.80;4.53;;;;;;;;;;10099336;28;20078;-66
2023/05/24 07:46:55;;;;;;;7.07;5.88;;;;;;;;;;10098449;28;20175;-67
2023/05/24 07:51:58;;;;;;;9.35;5.72;;;;;;;;;;10100194;28;20073;-66
2023/05/24 07:56:56;;;;;;;4.95;4.45;;;;;;;;;;10098736;28;20082;-66
2023/05/24 08:02:00;;;;;;;5.50;5.00;;;;;;;;;;10100433;28;20286;-67
2023/05/24 08:07:01;;;;;;;4.40;4.00;;;;;;;;;;10097934;28;20083;-67
2023/05/24 08:12:00;;;;;;;4.90;4.07;;;;;;;;;;10099100;28;20073;-66
2023/05/24 08:16:59;;;;;;;6.97;3.55;;;;;;;;;;10098648;28;20074;-67
2023/05/24 08:22:03;;;;;;;5.32;4.18;;;;;;;;;;10100582;28;20074;-66
2023/05/24 08:27:03;;;;;;;12.05;3.95;;;;;;;;;;10099960;28;20086;-66
2023/05/24 08:32:01;;;;;;;7.35;4.65;;;;;;;;;;10100399;28;20063;-67
2023/05/24 08:37:00;;;;;;;7.25;4.70;;;;;;;;;;10096256;28;20083;-66
2023/05/24 08:41:59;;;;;;;4.47;3.53;;;;;;;;;;10096338;28;20078;-66
2023/05/24 08:47:02;;;;;;;6.70;3.45;;;;;;;;;;10096992;28;20066;-65
2023/05/24 08:52:01;;;;;;;3.88;3.42;;;;;;;;;;10094292;28;20078;-66
2023/05/24 08:57:00;;;;;;;5.10;3.78;;;;;;;;;;10096416;28;20070;-66
2023/05/24 09:01:59;;;;;;;5.65;3.10;;;;;;;;;;10096335;28;20070;-67
2023/05/24 09:06:59;;;;;;;9.10;3.83;;;;;;;;;;10089154;28;20077;-67
2023/05/24 09:12:00;;;;;;;4.90;4.00;;;;;;;;;;10092768;28;20086;-67
2023/05/24 09:16:58;;;;;;;6.32;4.13;;;;;;;;;;10096203;28;20085;-66
2023/05/24 09:21:57;;;;;;;5.25;3.70;;;;;;;;;;10104084;28;20608;-65
2023/05/24 09:27:04;;;;;;;7.60;3.88;;;;;;;;;;10097085;28;20832;-66
2023/05/24 09:32:03;;;;;;;4.60;3.92;;;;;;;;;;10097201;28;20074;-66
2023/05/24 09:37:02;;;;;;;7.43;3.30;;;;;;;;;;10093656;28;20105;-66
2023/05/24 09:42:02;;;;;;;6.07;3.28;;;;;;;;;;10096537;28;20083;-66
2023/05/24 09:47:01;;;;;;;4.70;3.28;;;;;;;;;;10096250;28;20070;-66
2023/05/24 09:52:00;;;;;;;4.00;3.47;;;;;;;;;;10091915;28;20513;-65
2023/05/24 09:57:00;;;;;;;3.47;3.05;;;;;;;;;;10092403;28;20070;-65
2023/05/24 10:07:52;;;;;;;5.30;3.25;;;;;;;;;;10091952;28;20067;-65
2023/05/24 10:12:51;;;;;;;3.88;3.08;;;;;;;;;;10094897;28;20487;-65
2023/05/24 10:17:49;;;;;;;12.40;2.75;;;;;;;;;;10100177;28;20078;-66
2023/05/24 10:22:50;;;;;;;3.67;3.05;;;;;;;;;;10101993;28;20083;-65
2023/05/24 10:27:50;;;;;;;5.35;3.22;;;;;;;;;;10099487;28;20542;-66
2023/05/24 10:32:49;;;;;;;5.68;3.05;;;;;;;;;;10100822;28;20524;-65
2023/05/24 10:37:47;;;;;;;5.63;3.13;;;;;;;;;;10096267;28;20520;-66
2023/05/24 10:42:46;;;;;;;4.85;4.30;;;;;;;;;;10097669;28;20567;-67
2023/05/24 10:47:45;;;;;;;7.03;3.90;;;;;;;;;;10097950;28;20073;-65
2023/05/24 10:52:43;;;;;;;8.52;3.28;;;;;;;;;;10096416;28;20070;-67
2023/05/24 10:57:42;;;;;;;3.67;3.20;;;;;;;;;;10099921;28;20074;-66
2023/05/24 11:02:40;;;;;;;5.70;3.65;;;;;;;;;;10097239;28;20505;-67
2023/05/24 11:07:42;;;;;;;4.13;3.60;;;;;;;;;;10096566;28;20071;-67
2023/05/24 11:12:41;;;;;;;5.57;3.65;;;;;;;;;;10098217;28;20461;-66
2023/05/24 11:17:54;;;;;;;9.13;3.50;;;;;;;;;;10099913;28;20081;-67
2023/05/24 11:22:54;;;;;;;4.78;3.75;;;;;;;;;;10110935;28;20086;-66
2023/05/24 11:27:53;;;;;;;7.10;3.45;;;;;;;;;;10099819;28;20081;-67
2023/05/24 11:32:51;;;;;;;6.65;3.85;;;;;;;;;;10099475;28;20090;-66
2023/05/24 11:37:49;;;;;;;4.93;3.50;;;;;;;;;;10100733;28;20094;-66
2023/05/24 11:42:49;;;;;;;3.95;3.55;;;;;;;;;;10098187;28;20117;-67
2023/05/24 11:47:48;;;;;;;5.68;3.22;;;;;;;;;;10100232;28;20070;-66
2023/05/24 11:52:46;;;;;;;3.55;3.03;;;;;;;;;;10099854;28;20079;-66
2023/05/24 11:57:50;;;;;;;7.70;3.38;;;;;;;;;;10098394;28;20563;-66
2023/05/24 12:02:51;;;;;;;5.07;3.30;;;;;;;;;;10099372;28;20504;-67
2023/05/24 12:08:03;;;;;;;8.13;4.40;;;;;;;;;;10100458;28;20078;-66
2023/05/24 12:13:02;;;;;;;6.20;3.88;;;;;;;;;;10101624;28;20066;-66
2023/05/24 12:18:02;;;;;;;4.65;4.18;;;;;;;;;;10097614;28;20062;-66
2023/05/24 12:23:00;;;;;;;4.35;3.60;;;;;;;;;;10099144;28;20670;-66
2023/05/24 12:27:59;;;;;;;5.03;4.03;;;;;;;;;;10098017;28;20070;-66
2023/05/24 12:32:57;;;;;;;7.07;4.10;;;;;;;;;;10096621;28;20079;-66
2023/05/24 12:38:00;;;;;;;7.97;4.20;;;;;;;;;;10097477;28;20079;-66
2023/05/24 12:42:58;;;;;;;12.75;4.68;;;;;;;;;;10097407;28;20074;-66
2023/05/24 12:47:58;;;;;;;5.43;3.75;;;;;;;;;;10097772;28;20071;-66
2023/05/24 12:52:56;;;;;;;5.50;4.03;;;;;;;;;;10095414;28;20078;-65
2023/05/24 12:57:56;;;;;;;6.43;3.28;;;;;;;;;;10097367;28;20093;-66
2023/05/24 13:02:57;;;;;;;4.25;3.75;;;;;;;;;;10096171;28;20076;-66
2023/05/24 13:07:56;;;;;;;4.13;3.70;;;;;;;;;;10095134;28;20081;-65
2023/05/24 13:12:56;;;;;;;4.13;3.40;;;;;;;;;;10096677;28;20070;-66
2023/05/24 13:17:56;;;;;;;5.47;3.53;;;;;;;;;;10096268;28;20073;-66
2023/05/24 13:22:54;;;;;;;4.82;3.00;;;;;;;;;;10095630;28;20085;-66
2023/05/24 13:27:53;;;;;;;5.82;2.88;;;;;;;;;;10097140;28;20074;-66
2023/05/24 13:32:52;;;;;;;4.28;2.70;;;;;;;;;;10093968;28;20481;-65
2023/05/24 13:37:53;;;;;;;4.40;3.40;;;;;;;;;;10094175;28;20078;-65
2023/05/24 13:42:51;;;;;;;4.18;3.50;;;;;;;;;;10094492;28;20067;-65
2023/05/24 13:47:49;;;;;;;4.15;2.67;;;;;;;;;;10102260;28;20070;-64
2023/05/24 13:52:49;;;;;;;3.78;3.33;;;;;;;;;;10103447;28;20078;-66
2023/05/24 13:57:47;;;;;;;4.32;2.63;;;;;;;;;;10102527;28;20074;-66
2023/05/24 14:02:49;;;;;;;7.93;4.50;;;;;;;;;;10104965;28;20077;-66
2023/05/24 14:07:49;;;;;;;3.78;3.03;;;;;;;;;;10102919;28;20077;-66
2023/05/24 14:12:47;;;;;;;5.68;3.35;;;;;;;;;;10098426;28;20089;-65
2023/05/24 14:18:06;;;;;;;3.57;2.80;;;;;;;;;;10104941;28;20074;-65
2023/05/24 14:23:06;;;;;;;8.85;3.70;;;;;;;;;;10103301;28;20520;-66
2023/05/24 14:28:07;;;;;;;6.53;2.72;;;;;;;;;;10103008;28;20091;-66
2023/05/24 14:33:06;;;;;;;7.40;3.85;;;;;;;;;;10102471;28;20067;-63
2023/05/24 14:38:07;;;;;;;5.75;3.85;;;;;;;;;;10102668;28;20082;-66
2023/05/24 14:43:06;;;;;;;8.38;3.42;;;;;;;;;;10102258;28;20085;-67
2023/05/24 14:48:04;;;;;;;5.65;3.28;;;;;;;;;;10101281;28;20086;-66
2023/05/24 14:53:08;;;;;;;5.35;2.80;;;;;;;;;;10101100;28;20074;-65
2023/05/24 14:58:10;;;;;;;3.25;2.97;;;;;;;;;;10100223;28;20082;-66
2023/05/24 15:03:10;;;;;;;4.53;3.30;;;;;;;;;;10100601;28;20067;-67
2023/05/24 15:08:09;;;;;;;5.18;3.75;;;;;;;;;;10102247;28;20074;-65
2023/05/24 15:13:09;;;;;;;5.78;3.60;;;;;;;;;;10099081;28;20077;-65
2023/05/24 15:18:08;;;;;;;6.57;3.40;;;;;;;;;;10101574;28;20081;-66
2023/05/24 15:23:09;;;;;;;3.88;3.22;;;;;;;;;;10099598;28;20082;-66
2023/05/24 15:28:11;;;;;;;7.70;3.63;;;;;;;;;;10100145;28;20468;-65
2023/05/24 15:33:10;;;;;;;3.30;3.00;;;;;;;;;;10101482;28;20071;-66
2023/05/24 15:38:08;;;;;;;6.28;3.40;;;;;;;;;;10098403;28;20083;-65
2023/05/24 15:43:06;;;;;;;4.97;3.05;;;;;;;;;;10100019;28;20073;-66
2023/05/24 15:48:06;;;;;;;4.68;3.30;;;;;;;;;;10099466;28;20074;-66
2023/05/24 15:53:04;;;;;;;9.27;3.30;;;;;;;;;;10100524;28;20066;-66
2023/05/24 15:58:03;;;;;;;5.28;3.67;;;;;;;;;;10097956;28;20079;-66
2023/05/24 16:03:01;;;;;;;7.15;2.92;;;;;;;;;;10098604;28;20524;-66
2023/05/24 16:08:01;;;;;;;7.65;3.00;;;;;;;;;;10097869;28;20282;-66
2023/05/24 16:12:59;;;;;;;4.07;3.22;;;;;;;;;;10098176;28;20070;-66
2023/05/24 16:17:57;;;;;;;15.05;4.55;;;;;;;;;;10098218;28;20077;-66
2023/05/24 16:22:56;;;;;;;6.70;3.35;;;;;;;;;;10098327;28;20458;-65
2023/05/24 16:27:56;;;;;;;10.57;3.42;;;;;;;;;;10097077;28;20077;-66
2023/05/24 16:32:54;;;;;;;9.20;5.03;;;;;;;;;;10098291;28;20448;-66
2023/05/24 16:37:55;;;;;;;7.43;3.70;;;;;;;;;;10097364;28;20086;-65
2023/05/24 16:42:54;;;;;;;4.57;3.95;;;;;;;;;;10096402;28;20074;-65
2023/05/24 16:47:53;;;;;;;5.90;3.40;;;;;;;;;;10095468;28;20051;-66
2023/05/24 16:52:51;;;;;;;4.25;3.10;;;;;;;;;;10098596;28;20083;-66
2023/05/24 16:57:50;;;;;;;5.10;3.78;;;;;;;;;;10097038;28;20070;-66
2023/05/24 17:02:48;;;;;;;5.53;3.70;;;;;;;;;;10096713;28;20530;-65
2023/05/24 17:07:48;;;;;;;7.85;5.10;;;;;;;;;;10097145;28;20071;-66
2023/05/24 17:12:48;;;;;;;7.00;3.70;;;;;;;;;;10095329;28;20070;-66
2023/05/24 17:17:46;;;;;;;6.90;5.25;;;;;;;;;;10092944;28;20078;-66
2023/05/24 17:22:44;;;;;;;5.25;4.72;;;;;;;;;;10095604;28;20074;-66
2023/05/24 17:27:44;;;;;;;4.50;3.47;;;;;;;;;;10093914;28;20081;-66
2023/05/24 17:32:42;;;;;;;6.32;4.10;;;;;;;;;;10095669;28;20526;-66
2023/05/24 17:37:41;;;;;;;6.07;5.22;;;;;;;;;;10097088;28;20063;-66
2023/05/24 17:42:41;;;;;;;6.38;3.47;;;;;;;;;;10094084;28;20078;-66
2023/05/24 17:47:40;;;;;;;5.85;3.53;;;;;;;;;;10096879;28;20150;-66
2023/05/24 17:52:39;;;;;;;3.20;2.75;;;;;;;;;;10095062;28;20548;-67
2023/05/24 17:57:37;;;;;;;5.32;3.78;;;;;;;;;;10096118;28;20071;-66
2023/05/24 18:02:35;;;;;;;5.63;3.00;;;;;;;;;;10095714;28;20105;-66
2023/05/24 18:07:35;;;;;;;3.92;3.38;;;;;;;;;;10094413;28;20566;-65
2023/05/24 18:12:33;;;;;;;4.28;3.88;;;;;;;;;;10095072;28;20066;-67
2023/05/24 18:17:31;;;;;;;4.78;3.40;;;;;;;;;;10096227;28;20097;-67
2023/05/24 18:22:29;;;;;;;3.55;2.80;;;;;;;;;;10095245;28;20078;-67
2023/05/24 18:27:29;;;;;;;4.88;4.10;;;;;;;;;;10094751;28;20062;-66
2023/05/24 18:32:27;;;;;;;6.50;4.05;;;;;;;;;;10096803;28;20075;-66
2023/05/24 18:37:26;;;;;;;3.65;3.22;;;;;;;;;;10105170;28;20067;-66
2023/05/24 18:42:24;;;;;;;6.68;4.20;;;;;;;;;;10097580;28;20081;-66
2023/05/24 18:47:24;;;;;;;5.00;3.78;;;;;;;;;;10096328;28;20549;-66
2023/05/24 18:52:23;;;;;;;13.43;3.78;;;;;;;;;;10098075;28;20508;-66
2023/05/24 18:57:21;;;;;;;9.13;3.65;;;;;;;;;;10092364;28;20082;-66
2023/05/24 19:02:19;;;;;;;16.83;4.57;;;;;;;;;;10093738;28;20082;-66
2023/05/24 19:07:19;;;;;;;4.05;3.42;;;;;;;;;;10094351;28;20078;-66
2023/05/24 19:12:17;;;;;;;7.25;3.83;;;;;;;;;;10096330;28;20078;-66
2023/05/24 19:17:16;;;;;;;4.03;3.63;;;;;;;;;;10101797;28;20078;-66
2023/05/24 19:22:15;;;;;;;5.95;3.50;;;;;;;;;;10098633;28;20089;-65
2023/05/24 19:27:15;;;;;;;5.65;3.83;;;;;;;;;;10100509;28;20082;-66
2023/05/24 19:32:13;;;;;;;3.45;3.13;;;;;;;;;;10100746;28;20071;-66
2023/05/24 19:37:12;;;;;;;4.43;3.45;;;;;;;;;;10101291;28;20074;-66
2023/05/24 19:42:12;;;;;;;5.72;3.47;;;;;;;;;;10096451;28;20075;-66
2023/05/24 19:47:12;;;;;;;5.47;2.88;;;;;;;;;;10098420;28;20507;-65
2023/05/24 19:52:10;;;;;;;6.10;2.97;;;;;;;;;;10103583;28;20488;-65
2023/05/24 19:57:08;;;;;;;4.43;3.70;;;;;;;;;;10104275;28;20070;-65
2023/05/24 20:02:07;;;;;;;3.55;3.25;;;;;;;;;;10098718;28;20078;-67
2023/05/24 20:07:07;;;;;;;4.43;3.60;;;;;;;;;;10098247;28;20066;-66
2023/05/24 20:12:06;;;;;;;3.85;3.00;;;;;;;;;;10098490;28;20173;-66
2023/05/24 20:17:04;;;;;;;6.38;3.35;;;;;;;;;;10098364;28;20079;-66
2023/05/24 20:22:03;;;;;;;4.15;3.40;;;;;;;;;;10098544;28;20113;-66
2023/05/24 20:27:03;;;;;;;5.00;2.80;;;;;;;;;;10092521;28;20085;-66
2023/05/24 20:32:01;;;;;;;7.80;4.03;;;;;;;;;;10099552;28;20077;-66
2023/05/24 20:36:59;;;;;;;5.82;3.72;;;;;;;;;;10099567;28;20563;-66
2023/05/24 20:41:58;;;;;;;6.20;3.67;;;;;;;;;;10100878;28;20074;-66
2023/05/24 20:46:57;;;;;;;6.20;2.90;;;;;;;;;;10102310;28;20074;-67
2023/05/24 20:51:55;;;;;;;3.80;3.47;;;;;;;;;;10099649;28;20445;-65
2023/05/24 20:56:54;;;;;;;3.65;2.92;;;;;;;;;;10097141;28;20075;-66
2023/05/24 21:01:52;;;;;;;6.82;5.10;;;;;;;;;;10098755;28;20074;-66
2023/05/24 21:06:53;;;;;;;4.50;4.07;;;;;;;;;;10099468;28;20063;-66
2023/05/24 21:11:52;;;;;;;4.32;3.53;;;;;;;;;;10099026;28;20066;-65
2023/05/24 21:16:50;;;;;;;6.25;3.47;;;;;;;;;;10097813;28;20063;-66
2023/05/24 21:21:48;;;;;;;4.03;3.70;;;;;;;;;;10099991;28;20623;-66
2023/05/24 21:26:48;;;;;;;3.50;3.20;;;;;;;;;;10098143;28;20941;-65
2023/05/24 21:31:47;;;;;;;7.28;3.58;;;;;;;;;;10099832;28;20582;-66
2023/05/24 21:36:46;;;;;;;13.02;4.55;;;;;;;;;;10097866;28;20070;-66
2023/05/24 21:41:44;;;;;;;5.10;3.78;;;;;;;;;;10094469;28;20082;-66
2023/05/24 21:46:43;;;;;;;3.65;3.35;;;;;;;;;;10098797;28;20558;-66
2023/05/24 21:51:42;;;;;;;4.90;3.15;;;;;;;;;;10098674;28;20063;-66
2023/05/24 21:56:40;;;;;;;8.05;4.05;;;;;;;;;;10099970;28;20066;-66
2023/05/24 22:01:38;;;;;;;8.77;3.75;;;;;;;;;;10097919;28;20075;-65
2023/05/24 22:06:40;;;;;;;6.88;3.63;;;;;;;;;;10099185;28;20081;-66
2023/05/24 22:11:39;;;;;;;4.63;4.20;;;;;;;;;;10109711;28;20074;-66
2023/05/24 22:16:37;;;;;;;3.95;3.55;;;;;;;;;;10107488;28;20079;-66
2023/05/24 22:21:36;;;;;;;4.05;3.65;;;;;;;;;;10102925;28;20473;-66
2023/05/24 22:26:36;;;;;;;6.57;3.83;;;;;;;;;;10106611;28;20082;-66
2023/05/24 22:31:35;;;;;;;3.95;3.08;;;;;;;;;;10105295;28;20473;-66
2023/05/24 22:36:33;;;;;;;4.47;3.67;;;;;;;;;;10104204;28;20070;-66
2023/05/24 22:41:31;;;;;;;4.38;3.05;;;;;;;;;;10106677;28;20074;-64
2023/05/24 22:46:31;;;;;;;4.05;3.50;;;;;;;;;;10104303;28;20077;-65
2023/05/24 22:51:29;;;;;;;5.57;3.65;;;;;;;;;;10105843;28;20518;-65
2023/05/24 22:56:27;;;;;;;4.03;3.17;;;;;;;;;;10103070;28;20074;-66
2023/05/24 23:01:26;;;;;;;4.85;3.40;;;;;;;;;;10108667;28;20535;-67
2023/05/24 23:06:27;;;;;;;3.60;3.30;;;;;;;;;;10103818;28;20484;-66
2023/05/24 23:11:25;;;;;;;3.83;3.35;;;;;;;;;;10102387;28;20082;-66
2023/05/24 23:16:23;;;;;;;4.25;3.53;;;;;;;;;;10103632;28;20478;-66
2023/05/24 23:21:23;;;;;;;4.80;4.40;;;;;;;;;;10105509;28;20078;-66
2023/05/24 23:26:23;;;;;;;4.90;3.28;;;;;;;;;;10102714;28;20090;-67
2023/05/24 23:31:21;;;;;;;4.00;3.60;;;;;;;;;;10105233;28;20074;-67
2023/05/24 23:36:20;;;;;;;5.20;3.40;;;;;;;;;;10102094;28;20070;-66
2023/05/24 23:41:18;;;;;;;4.93;3.53;;;;;;;;;;10101371;28;20086;-66
2023/05/24 23:46:18;;;;;;;3.67;3.38;;;;;;;;;;10101017;28;20085;-66
2023/05/24 23:51:18;;;;;;;6.05;3.95;;;;;;;;;;10102384;28;20066;-66
2023/05/24 23:56:16;;;;;;;5.70;3.63;;;;;;;;;;10094670;28;20878;-65
